Strongs, Michigan
Current Conditions -  °F | °C
As of 3:34 AM on Sunday 23 Nov 2014 (Local Time) from KERY Reporting Station
Moderate Fog Moderate Fog  
Wind Chill: 27°   Ceiling: 200
Heat Index: 34°   Visibility: 0.5mi
Dew Point: 34°   Wind: 8mph
Humidity: 100%   Direction: 150°SSE
Pressure: 29.73"   Gusts: NA
Location:  46.36°N, 84.97°W
Report Text: KERY 230834Z AUTO 15007KT 1/2SM FG OVC002 01/01 A2973 RMK AO2 T00120012
Loading
Personal Weather Stations






























Interactive Weather Map New forecast layout! Learn more

10-Day Weather Forecast

Advertisements
Track Severe Weather on mobile